Latest Coastal Weather Observations for Stenhouse Bay

IDS60701

Issued at 9:05 pm CST Monday 1 September 2014 (issued every 10 minutes, with the page automatically refreshed every 10 minutes)

About coastal observations | Map of coastal stations | Coastal observations for SA | Marine services | Other Formats
Station Details ID: 022049 Name: STENHOUSE BAY Lat: -35.28 Lon: 136.94 Height: 42.0 m
Data from the previous 72 hours. | See also: Recent months at Stenhouse Bay
Date/Time
CST
Temp

°C
Wind Pressure Rain
since 9am
mm
Weather Cloud Vis
km
Sea
Height
m
Swell
Dir
 
Speed
knots
Gust
knots
hPa Trend Height
m
Period
s
Dir
01/09:04pm 10.3 SW 17 28 1019.6 - 4.0 - - - - - - -
01/09:00pm 11.5 SW 19 28 1019.5 - 4.0 - - - - - - -
01/08:30pm 11.5 SW 20 29 1019.1 - 4.0 - - - - - - -
01/08:23pm 11.4 SW 19 29 1019.1 - 4.0 - - - - - - -
01/08:00pm 11.3 SW 20 27 1018.8 - 4.0 - - - - - - -
01/07:30pm 11.1 SW 18 28 1018.3 - 4.0 - - - - - - -
01/07:01pm 10.8 SW 17 30 1017.9 - 4.0 - - - - - - -
01/07:00pm 11.0 SW 16 24 1017.8 - 4.0 - - - - - - -
01/06:30pm 9.5 SSW 13 18 1017.6 - 3.8 - - - - - - -
01/06:00pm 9.7 WSW 13 19 1017.0 - 2.2 Recent precip. - - - - - -
01/05:30pm 8.9 WSW 18 25 1016.8 - 2.0 - - - - - - -
01/05:11pm 9.3 SW 25 36 1016.5 - 1.6 - - - - - - -
01/05:00pm 9.4 SW 27 36 1016.3 - 1.6 - - - - - - -
01/04:57pm 9.8 SW 30 36 1016.2 - 1.0 - - - - - - -
01/04:55pm 10.9 WSW 17 34 1016.1 - 0.6 - - - - - - -
01/04:30pm 12.5 SW 16 23 1015.7 - 0.2 - - - - - - -
01/04:00pm 12.4 SW 18 24 1015.4 - 0.2 - - - - - - -
01/03:30pm 13.0 SW 16 22 1015.1 - 0.2 - - - - - - -
01/03:00pm 11.2 SW 16 25 1014.8 - 0.2 Rain - - - - - -
01/02:30pm 13.0 WSW 12 16 1014.5 - 0.0 - - - - - - -
01/02:00pm 14.7 WSW 13 20 1014.6 - 0.0 - - - - - - -
01/01:30pm 13.8 WSW 15 20 1014.5 - 0.0 - - - - - - -
01/01:09pm 15.0 WSW 15 27 1014.5 - 0.0 - - - - - - -
01/01:00pm 16.0 WSW 12 18 1014.6 - 0.0 - - - - - - -
01/12:30pm 15.3 WSW 12 18 1014.7 - 0.0 - - - - - - -
01/12:00pm 14.4 WSW 13 20 1014.8 - 0.0 - - - - - - -
01/11:30am 15.1 WSW 12 17 1014.9 - 0.0 - - - - - - -
01/11:00am 15.0 WSW 11 16 1014.8 - 0.0 - - - - - - -
01/10:30am 14.5 WSW 13 18 1014.6 - 0.0 - - - - - - -
01/10:00am 14.1 WSW 14 19 1014.6 - 0.0 - - - - - - -
01/09:30am 13.9 WSW 13 19 1014.4 - 0.0 - - - - - - -
01/09:00am 13.8 WSW 13 20 1014.2 - 4.2 - - - - - - -
01/08:30am 13.3 SW 13 20 1014.0 - 4.2 - - - - - - -
01/08:00am 12.5 SW 12 16 1013.7 - 4.2 - - - - - - -
01/07:30am 12.5 SW 14 19 1013.3 - 4.2 - - - - - - -
01/07:00am 12.3 SW 12 16 1013.0 - 4.2 - - - - - - -
01/06:30am 12.3 SW 13 17 1012.8 - 4.2 - - - - - - -
01/06:00am 12.0 SW 12 17 1012.4 - 4.2 Recent precip. - - - - - -
01/05:30am 12.1 WSW 12 18 1012.1 - 4.2 - - - - - - -
01/05:00am 11.6 WSW 11 15 1011.9 - 4.0 - - - - - - -
01/04:30am 12.6 SW 13 18 1011.6 - 3.8 - - - - - - -
01/04:00am 12.7 SW 12 17 1011.4 - 3.8 - - - - - - -
01/03:30am 12.6 SW 12 17 1011.1 - 3.8 - - - - - - -
01/03:00am 12.2 WSW 9 12 1011.4 - 3.8 Recent precip. - - - - - -
01/02:30am 11.9 SW 14 18 1011.4 - 3.8 - - - - - - -
01/02:01am 12.1 SW 15 25 1011.7 - 3.4 - - - - - - -
01/02:00am 12.3 SW 14 25 1011.7 - 3.0 - - - - - - -
01/01:30am 12.8 WSW 9 12 1011.7 - 2.4 - - - - - - -
01/01:00am 13.1 WSW 10 14 1011.7 - 2.2 - - - - - - -
01/12:30am 13.2 SW 10 14 1011.7 - 2.0 - - - - - - -
01/12:00am 13.5 WSW 12 16 1011.8 - 1.8 - - - - - - -
 
Date/Time
CST
Temp

°C
Wind Pressure Rain
since 9am
mm
Weather Cloud Vis
km
Sea
Height
m
Swell
Dir
 
Speed
knots
Gust
knots
hPa Trend Height
m
Period
s
Dir
31/11:30pm 13.4 WSW 13 17 1011.7 - 1.8 - - - - - - -
31/11:00pm 13.3 WSW 13 17 1011.5 - 1.8 - - - - - - -
31/10:30pm 13.4 WSW 11 16 1011.2 - 1.8 - - - - - - -
31/10:00pm 13.0 WSW 9 12 1011.3 - 1.8 - - - - - - -
31/09:30pm 12.9 SW 7 12 1010.9 - 1.8 - - - - - - -
31/09:00pm 12.8 WSW 9 12 1011.1 - 1.8 Recent precip. - - - - - -
31/08:30pm 12.3 SW 12 17 1011.1 - 1.8 - - - - - - -
31/08:00pm 13.2 WSW 11 16 1011.4 - 1.6 - - - - - - -
31/07:30pm 13.5 W 9 14 1011.6 - 1.0 - - - - - - -
31/07:00pm 13.8 WSW 10 15 1011.3 - 0.8 - - - - - - -
31/06:30pm 14.2 WSW 9 13 1010.8 - 0.0 - - - - - - -
31/06:00pm 14.9 WSW 11 14 1010.4 - 0.0 - - - - - - -
31/05:30pm 15.6 W 11 17 1010.3 - 0.0 - - - - - - -
31/05:00pm 15.8 W 9 14 1009.8 - 0.0 - - - - - - -
31/04:30pm 16.3 WNW 9 13 1010.2 - 0.0 - - - - - - -
31/04:00pm 16.4 NW 10 15 1009.6 - 0.0 - - - - - - -
31/03:30pm 16.3 NNW 11 12 1009.2 - 0.0 - - - - - - -
31/03:00pm 17.2 NNW 12 16 1010.0 - 0.0 - - - - - - -
31/02:30pm 17.3 NW 11 17 1010.3 - 0.0 - - - - - - -
31/02:00pm 17.6 NNW 14 18 1009.8 - 0.0 - - - - - - -
31/01:30pm 18.5 N 13 21 1010.6 - 0.0 - - - - - - -
31/01:00pm 17.4 N 14 19 1010.7 - 0.0 - - - - - - -
31/12:30pm 17.1 N 17 23 1011.2 - 0.0 - - - - - - -
31/12:00pm 16.6 N 13 18 1010.9 - 0.0 - - - - - - -
31/11:30am 16.6 N 15 21 1011.8 - 0.0 - - - - - - -
31/11:00am 16.8 N 15 20 1012.7 - 0.0 - - - - - - -
31/10:30am 18.0 N 15 21 1013.0 - 0.0 - - - - - - -
31/10:00am 18.8 N 16 22 1013.0 - 0.0 - - - - - - -
31/09:30am 17.3 N 15 23 1013.2 - 0.0 - - - - - - -
31/09:00am 16.4 N 14 18 1013.2 - 0.0 - - - - - - -
31/08:30am 15.0 N 13 18 1013.1 - 0.0 - - - - - - -
31/08:00am 14.4 N 14 19 1012.7 - 0.0 - - - - - - -
31/07:30am 13.6 N 12 15 1013.0 - 0.0 - - - - - - -
31/07:00am 13.2 N 11 14 1013.1 - 0.0 - - - - - - -
31/06:30am 13.5 N 10 14 1013.3 - 0.0 - - - - - - -
31/06:00am 13.6 NNW 9 14 1013.8 - 0.0 - - - - - - -
31/05:30am 12.9 NNW 11 15 1013.3 - 0.0 - - - - - - -
31/05:00am 12.7 N 10 12 1013.0 - 0.0 - - - - - - -
31/04:30am 13.0 NNW 11 14 1013.3 - 0.0 - - - - - - -
31/04:00am 12.1 N 10 12 1013.2 - 0.0 - - - - - - -
31/03:30am 11.9 N 8 10 1013.4 - 0.0 - - - - - - -
31/03:00am 12.0 N 7 9 1013.9 - 0.0 - - - - - - -
31/02:30am 11.9 N 10 12 1013.9 - 0.0 - - - - - - -
31/02:00am 11.9 N 8 10 1014.1 - 0.0 - - - - - - -
31/01:30am 12.1 N 10 11 1014.0 - 0.0 - - - - - - -
31/01:00am 12.1 N 7 9 1014.8 - 0.0 - - - - - - -
31/12:30am 12.3 N 7 10 1014.9 - 0.0 - - - - - - -
31/12:00am 12.5 N 7 8 1015.1 - 0.0 - - - - - - -
 
Date/Time
CST
Temp

°C
Wind Pressure Rain
since 9am
mm
Weather Cloud Vis
km
Sea
Height
m
Swell
Dir
 
Speed
knots
Gust
knots
hPa Trend Height
m
Period
s
Dir
30/11:30pm 12.9 N 5 6 1015.5 - 0.0 - - - - - - -
30/11:00pm 13.5 N 4 6 1015.9 - 0.0 - - - - - - -
30/10:30pm 13.8 N 6 7 1016.0 - 0.0 - - - - - - -
30/10:00pm 14.4 N 8 10 1016.1 - 0.0 - - - - - - -
30/09:30pm 14.8 N 9 11 1016.2 - 0.0 - - - - - - -
30/09:00pm 14.9 N 9 11 1016.4 - 0.0 - - - - - - -
30/08:30pm 15.0 N 9 13 1016.7 - 0.0 - - - - - - -
30/08:00pm 14.9 N 9 13 1016.8 - 0.0 - - - - - - -
30/07:30pm 15.0 N 10 12 1016.9 - 0.0 - - - - - - -
30/07:00pm 15.0 N 8 10 1017.1 - 0.0 - - - - - - -
30/06:30pm 15.4 N 8 11 1016.9 - 0.0 - - - - - - -
30/06:00pm 16.3 N 8 9 1017.0 - 0.0 - - - - - - -
30/05:30pm 18.1 N 7 9 1017.3 - 0.0 - - - - - - -
30/05:00pm 19.4 N 9 13 1017.3 - 0.0 - - - - - - -
30/04:30pm 21.6 N 12 16 1017.2 - 0.0 - - - - - - -
30/04:00pm 22.4 N 13 17 1017.3 - 0.0 - - - - - - -
30/03:30pm 23.0 N 12 18 1017.5 - 0.0 - - - - - - -
30/03:00pm 21.7 N 13 17 1017.8 - 0.0 - - - - - - -
30/02:30pm 23.1 N 14 19 1018.3 - 0.0 - - - - - - -
30/02:00pm 22.8 N 13 19 1018.7 - 0.0 - - - - - - -
30/01:30pm 22.8 N 14 19 1019.1 - 0.0 - - - - - - -
30/01:00pm 22.6 N 14 20 1019.4 - 0.0 - - - - - - -
30/12:30pm 22.0 N 14 20 1020.2 - 0.0 - - - - - - -
30/12:00pm 21.4 N 14 19 1020.5 - 0.0 - - - - - - -
30/11:30am 21.9 N 15 21 1021.0 - 0.0 - - - - - - -
30/11:00am 21.8 N 16 20 1021.3 - 0.0 - - - - - - -
30/10:30am 21.4 N 14 19 1021.4 - 0.0 - - - - - - -
30/10:00am 20.3 N 10 13 1021.7 - 0.0 - - - - - - -
30/09:30am 18.3 N 11 15 1022.0 - 0.0 - - - - - - -
30/09:00am 16.0 N 8 12 1022.2 - 0.0 - - - - - - -
30/08:30am 14.9 N 7 9 1022.1 - 0.0 - - - - - - -
30/08:00am 13.1 N 7 10 1021.9 - 0.0 - - - - - - -
30/07:30am 12.1 N 9 11 1021.7 - 0.0 - - - - - - -
30/07:00am 11.1 N 8 10 1021.7 - 0.0 - - - - - - -
30/06:30am 10.6 N 8 10 1021.5 - 0.0 - - - - - - -
30/06:00am 10.8 N 9 12 1021.2 - 0.0 - - - - - - -
30/05:30am 10.8 N 8 11 1021.2 - 0.0 - - - - - - -
30/05:00am 10.4 N 8 9 1021.5 - 0.0 - - - - - - -
30/04:30am 10.9 N 8 10 1021.8 - 0.0 - - - - - - -
30/04:00am 11.4 N 8 10 1022.0 - 0.0 - - - - - - -
30/03:30am 11.9 NNW 8 12 1022.1 - 0.0 - - - - - - -
30/03:00am 12.1 NNW 9 11 1022.3 - 0.0 - - - - - - -
30/02:30am 12.3 N 7 9 1022.5 - 0.0 - - - - - - -
30/02:00am 12.2 N 7 8 1022.5 - 0.0 - - - - - - -
30/01:30am 13.2 NNE 8 11 1022.6 - 0.0 - - - - - - -
30/01:00am 15.1 NNE 9 11 1022.7 - 0.0 - - - - - - -
30/12:30am 15.0 NNE 8 11 1022.9 - 0.0 - - - - - - -
30/12:00am 14.9 NNE 9 12 1023.0 - 0.0 - - - - - - -
 
Date/Time
CST
Temp

°C
Wind Pressure Rain
since 9am
mm
Weather Cloud Vis
km
Sea
Height
m
Swell
Dir
 
Speed
knots
Gust
knots
hPa Trend Height
m
Period
s
Dir
29/11:30pm 14.4 NNE 7 11 1023.2 - 0.0 - - - - - - -
29/11:00pm 14.6 NE 9 13 1023.4 - 0.0 - - - - - - -
29/10:30pm 15.1 NE 10 14 1023.6 - 0.0 - - - - - - -
29/10:00pm 15.2 NE 9 12 1023.7 - 0.0 - - - - - - -
29/09:30pm 14.3 NNE 6 9 1023.9 - 0.0 - - - - - - -

Other Formats:

Comma delimited format used in spreadsheet applications
http://www.bom.gov.au/fwo/IDS60701/IDS60701.95806.axf

JavaScript Object Notation format (JSON) in row-major order
http://www.bom.gov.au/fwo/IDS60701/IDS60701.95806.json